Time;durP1;ratioP1;P1;durP2;ratioP2;P2;SDS_P1;SDS_P2;PMS_P1;PMS_P2;Temp;Humidity;BMP_temperature;BMP_pressure;BME280_temperature;BME280_humidity;BME280_pressure;Samples;Min_cycle;Max_cycle;Signal;HPM_P1;HPM_P2
2024/01/26 00:00:42;;;;;;;921.83;838.42;;;8.00;99.90;;;;;;4994987;28;20087;-76
2024/01/26 00:03:08;;;;;;;913.95;831.53;;;8.00;99.90;;;;;;4985841;28;20049;-76
2024/01/26 00:05:33;;;;;;;918.92;836.00;;;8.10;99.90;;;;;;4984450;28;20460;-76
2024/01/26 00:07:59;;;;;;;887.72;810.97;;;8.00;99.90;;;;;;4997868;28;20104;-76
2024/01/26 00:10:25;;;;;;;935.45;848.35;;;8.10;99.90;;;;;;4983322;28;20097;-76
2024/01/26 00:12:50;;;;;;;905.33;826.53;;;8.20;99.90;;;;;;4984688;28;20091;-76
2024/01/26 00:15:16;;;;;;;926.42;844.88;;;8.20;99.90;;;;;;4983008;28;20061;-76
2024/01/26 00:17:42;;;;;;;913.45;832.15;;;8.10;99.90;;;;;;4984203;28;20048;-76
2024/01/26 00:20:09;;;;;;;930.50;845.08;;;8.10;99.90;;;;;;4984163;28;20090;-76
2024/01/26 00:22:35;;;;;;;899.67;820.22;;;8.20;99.90;;;;;;4989751;28;20048;-76
2024/01/26 00:25:01;;;;;;;924.00;841.83;;;8.20;99.90;;;;;;4991878;28;20449;-76
2024/01/26 00:27:27;;;;;;;933.90;849.30;;;8.20;99.90;;;;;;4967862;28;20481;-76
2024/01/26 00:29:53;;;;;;;881.28;803.95;;;8.20;99.90;;;;;;4983524;28;20050;-76
2024/01/26 00:32:18;;;;;;;889.42;811.40;;;8.20;99.90;;;;;;4985603;28;20124;-76
2024/01/26 00:34:44;;;;;;;921.25;838.38;;;8.20;99.90;;;;;;4986321;28;20692;-76
2024/01/26 00:37:10;;;;;;;918.33;836.38;;;8.30;99.90;;;;;;4983296;28;20054;-76
2024/01/26 00:39:36;;;;;;;885.03;806.95;;;8.30;99.90;;;;;;4982802;28;20091;-76
2024/01/26 00:42:01;;;;;;;927.85;844.45;;;8.30;99.90;;;;;;4984652;28;20048;-77
2024/01/26 00:44:27;;;;;;;885.45;807.35;;;8.40;99.90;;;;;;4984674;28;20050;-76
2024/01/26 00:46:53;;;;;;;1008.33;902.15;;;8.30;99.90;;;;;;4984431;28;20134;-76
2024/01/26 00:49:18;;;;;;;909.47;826.20;;;8.30;99.90;;;;;;4984117;28;20057;-76
2024/01/26 00:51:44;;;;;;;902.08;821.35;;;8.50;99.90;;;;;;4987705;28;20049;-76
2024/01/26 00:54:10;;;;;;;924.63;840.13;;;8.40;99.90;;;;;;5002366;28;20049;-76
2024/01/26 00:56:36;;;;;;;978.80;884.25;;;8.40;99.90;;;;;;4997926;28;20046;-76
2024/01/26 00:59:01;;;;;;;945.10;858.72;;;8.50;99.90;;;;;;4983633;28;20075;-76
2024/01/26 01:01:27;;;;;;;911.40;830.25;;;8.50;99.90;;;;;;4985149;28;20053;-76
2024/01/26 01:03:53;;;;;;;995.20;899.45;;;8.60;99.90;;;;;;4994691;28;20037;-76
2024/01/26 01:06:19;;;;;;;1011.08;908.13;;;8.50;99.90;;;;;;5003726;28;20042;-76
2024/01/26 01:08:45;;;;;;;922.95;837.60;;;8.60;99.90;;;;;;5003221;28;20040;-76
2024/01/26 01:11:11;;;;;;;956.58;869.17;;;8.60;99.90;;;;;;4995630;28;20762;-76
2024/01/26 01:13:37;;;;;;;965.92;872.28;;;8.60;99.90;;;;;;5004368;28;20046;-76
2024/01/26 01:16:02;;;;;;;904.65;824.38;;;8.60;99.90;;;;;;5002123;28;20046;-76
2024/01/26 01:18:28;;;;;;;857.97;784.60;;;8.60;99.90;;;;;;5001856;28;20489;-76
2024/01/26 01:20:54;;;;;;;947.92;863.30;;;8.60;99.90;;;;;;5002613;28;20052;-76
2024/01/26 01:23:20;;;;;;;898.88;820.40;;;8.60;99.90;;;;;;5004062;28;20050;-76
2024/01/26 01:25:46;;;;;;;915.50;833.47;;;8.80;99.90;;;;;;4999613;28;20785;-76
2024/01/26 01:28:11;;;;;;;870.15;794.30;;;8.70;99.90;;;;;;5001899;28;20053;-76
2024/01/26 01:30:37;;;;;;;903.83;824.63;;;8.70;99.90;;;;;;5000373;28;20054;-76
2024/01/26 01:33:03;;;;;;;861.75;788.60;;;8.70;99.90;;;;;;5001128;28;20164;-76
2024/01/26 01:35:29;;;;;;;885.83;810.83;;;8.70;99.90;;;;;;5000776;28;20088;-76
2024/01/26 01:37:55;;;;;;;882.88;806.47;;;8.80;99.90;;;;;;5002464;28;20057;-76
2024/01/26 01:40:22;;;;;;;888.75;811.63;;;8.70;99.90;;;;;;4999098;28;20050;-76
2024/01/26 01:42:48;;;;;;;913.33;831.88;;;8.80;99.90;;;;;;5001780;28;20076;-76
2024/01/26 01:45:14;;;;;;;893.60;816.03;;;8.80;99.90;;;;;;5002024;28;20398;-76
2024/01/26 01:47:41;;;;;;;873.83;800.22;;;8.80;99.90;;;;;;5003256;28;20042;-76
2024/01/26 01:50:08;;;;;;;951.50;863.33;;;8.80;99.90;;;;;;5036965;27;20042;-76
2024/01/26 01:52:41;;;;;;;867.22;792.78;;;8.80;99.90;;;;;;5005302;28;20361;-76
2024/01/26 01:55:10;;;;;;;847.70;777.75;;;8.90;99.90;;;;;;5004265;28;20062;-76
2024/01/26 01:57:39;;;;;;;873.05;800.38;;;8.90;99.90;;;;;;5006480;28;20056;-76
2024/01/26 02:00:05;;;;;;;925.95;844.50;;;8.90;99.90;;;;;;4993447;28;20449;-76
2024/01/26 02:02:31;;;;;;;859.85;789.10;;;8.90;99.90;;;;;;5006699;28;20081;-76
2024/01/26 02:04:56;;;;;;;891.90;815.70;;;8.90;99.90;;;;;;5005626;28;20160;-76
2024/01/26 02:07:22;;;;;;;833.13;765.40;;;8.90;99.90;;;;;;5004448;28;20149;-76
2024/01/26 02:09:48;;;;;;;877.55;802.05;;;8.90;99.90;;;;;;4993039;28;20046;-76
2024/01/26 02:12:14;;;;;;;987.78;895.88;;;9.00;99.90;;;;;;5000498;28;20054;-76
2024/01/26 02:14:40;;;;;;;936.83;853.05;;;8.90;99.90;;;;;;5004694;28;20134;-76
2024/01/26 02:17:06;;;;;;;991.65;897.60;;;9.00;99.90;;;;;;5007276;28;20590;-76
2024/01/26 02:19:32;;;;;;;838.13;769.53;;;9.00;99.90;;;;;;5000024;28;20046;-76
2024/01/26 02:21:58;;;;;;;904.75;825.20;;;9.00;99.90;;;;;;4998462;28;20202;-76
2024/01/26 02:24:24;;;;;;;930.35;848.90;;;9.00;99.90;;;;;;5004373;28;20043;-76
2024/01/26 02:26:50;;;;;;;989.78;893.53;;;9.00;99.90;;;;;;5023733;28;20118;-76
2024/01/26 02:29:16;;;;;;;865.20;791.55;;;9.10;99.90;;;;;;5037227;28;20172;-76
2024/01/26 02:31:41;;;;;;;882.95;809.63;;;9.10;99.90;;;;;;5004621;28;20046;-76
2024/01/26 02:34:07;;;;;;;892.65;817.47;;;9.00;99.90;;;;;;4998774;28;20454;-76
2024/01/26 02:36:35;;;;;;;885.17;806.80;;;9.10;99.90;;;;;;4986293;28;20078;-76
2024/01/26 02:39:01;;;;;;;894.58;818.08;;;9.00;99.90;;;;;;4985289;28;20058;-76
2024/01/26 02:41:29;;;;;;;889.00;813.40;;;9.10;99.90;;;;;;4998675;28;20053;-76
2024/01/26 02:43:55;;;;;;;846.50;777.83;;;9.10;99.90;;;;;;4996798;28;20054;-76
2024/01/26 02:46:21;;;;;;;968.35;875.13;;;9.10;99.90;;;;;;4986305;28;20095;-76
2024/01/26 02:48:46;;;;;;;872.70;800.33;;;9.10;99.90;;;;;;4985237;28;20042;-76
2024/01/26 02:51:12;;;;;;;911.17;834.53;;;9.20;99.90;;;;;;4985335;28;20065;-76
2024/01/26 02:53:39;;;;;;;945.33;860.78;;;9.10;99.90;;;;;;4985539;28;20502;-76
2024/01/26 02:56:06;;;;;;;906.55;829.53;;;9.10;99.90;;;;;;4984934;28;20508;-76
2024/01/26 02:58:32;;;;;;;903.65;828.63;;;9.20;99.90;;;;;;4986518;28;20212;-76
2024/01/26 03:00:57;;;;;;;884.78;810.85;;;9.20;99.90;;;;;;4986062;28;20133;-76
2024/01/26 03:03:23;;;;;;;893.58;817.22;;;9.10;99.90;;;;;;4997926;28;20053;-76
2024/01/26 03:05:49;;;;;;;988.00;897.72;;;9.20;99.90;;;;;;4984804;28;20508;-76
2024/01/26 03:08:15;;;;;;;970.13;880.83;;;9.20;99.90;;;;;;5004640;28;20046;-76
2024/01/26 03:10:41;;;;;;;974.00;881.33;;;9.30;99.90;;;;;;4997906;28;20043;-76
2024/01/26 03:13:06;;;;;;;848.53;780.15;;;9.20;99.90;;;;;;5005528;28;20517;-76
2024/01/26 03:15:32;;;;;;;892.63;818.28;;;9.10;99.90;;;;;;5003846;28;20394;-76
2024/01/26 03:17:58;;;;;;;829.13;761.72;;;9.20;99.90;;;;;;4984424;28;20131;-76
2024/01/26 03:20:23;;;;;;;886.60;811.80;;;9.20;99.90;;;;;;5018288;28;20049;-76
2024/01/26 03:22:49;;;;;;;950.20;866.28;;;9.20;99.90;;;;;;4985104;28;20162;-76
2024/01/26 03:25:15;;;;;;;962.17;871.95;;;9.20;99.90;;;;;;4983321;28;20034;-76
2024/01/26 03:27:40;;;;;;;921.88;836.92;;;9.20;99.90;;;;;;4985771;28;20216;-76
2024/01/26 03:30:08;;;;;;;859.25;790.15;;;9.30;99.90;;;;;;4997581;28;20355;-76
2024/01/26 03:32:34;;;;;;;894.50;819.55;;;9.20;99.90;;;;;;5003691;28;20050;-76
2024/01/26 03:35:00;;;;;;;871.88;800.22;;;9.30;99.90;;;;;;5003974;28;20061;-76
2024/01/26 03:37:25;;;;;;;902.50;822.70;;;9.30;99.90;;;;;;5005375;28;20061;-76
2024/01/26 03:39:51;;;;;;;877.50;805.58;;;9.20;99.90;;;;;;5034997;28;20830;-76
2024/01/26 03:42:17;;;;;;;924.92;844.40;;;9.20;99.90;;;;;;5003746;28;20042;-76
2024/01/26 03:44:43;;;;;;;857.45;785.97;;;9.30;99.90;;;;;;5036601;28;20103;-76
2024/01/26 03:47:10;;;;;;;897.03;821.05;;;9.20;99.90;;;;;;5003266;28;20038;-76
2024/01/26 03:49:39;;;;;;;874.65;802.03;;;9.20;99.90;;;;;;5002174;28;20124;-76
2024/01/26 03:52:05;;;;;;;901.10;823.20;;;9.20;99.90;;;;;;5005707;28;20060;-76
2024/01/26 03:54:31;;;;;;;952.00;867.22;;;9.30;99.90;;;;;;5002496;28;20042;-76
2024/01/26 03:56:56;;;;;;;900.20;826.42;;;9.30;99.90;;;;;;5005655;28;20528;-76
2024/01/26 03:59:22;;;;;;;933.50;854.13;;;9.40;99.90;;;;;;4991534;28;20143;-76
2024/01/26 04:01:48;;;;;;;993.80;896.60;;;9.30;99.90;;;;;;5003121;28;20055;-76
2024/01/26 04:04:13;;;;;;;844.88;777.38;;;9.30;99.90;;;;;;5002899;28;20111;-77
2024/01/26 04:06:40;;;;;;;1011.60;915.20;;;9.30;99.90;;;;;;4984461;28;20146;-76
2024/01/26 04:09:08;;;;;;;925.83;846.03;;;9.30;99.90;;;;;;4983592;28;20125;-77
2024/01/26 04:11:33;;;;;;;833.80;767.38;;;9.30;99.90;;;;;;4984021;28;20054;-76
2024/01/26 04:13:59;;;;;;;878.67;799.80;;;9.30;99.90;;;;;;4983946;28;20050;-76
2024/01/26 04:16:25;;;;;;;884.45;808.30;;;9.30;99.90;;;;;;4986120;28;20424;-76
2024/01/26 04:18:50;;;;;;;811.50;747.20;;;9.40;99.90;;;;;;4986653;28;20130;-76
2024/01/26 04:21:16;;;;;;;775.38;714.65;;;9.30;99.90;;;;;;5002880;28;20508;-76
2024/01/26 04:23:42;;;;;;;812.25;745.60;;;9.40;99.90;;;;;;5002004;28;20038;-76
2024/01/26 04:26:07;;;;;;;826.30;759.65;;;9.40;99.90;;;;;;5003732;28;20042;-77
2024/01/26 04:28:33;;;;;;;824.00;757.85;;;9.40;99.90;;;;;;5001070;28;20081;-76
2024/01/26 04:30:59;;;;;;;929.15;843.80;;;9.40;99.90;;;;;;5004416;28;20069;-76
2024/01/26 04:33:25;;;;;;;795.22;731.85;;;9.40;99.90;;;;;;5001974;28;20056;-76
2024/01/26 04:35:51;;;;;;;873.53;796.10;;;9.40;99.90;;;;;;5001784;28;20049;-76
2024/01/26 04:38:16;;;;;;;782.72;721.53;;;9.40;99.90;;;;;;5002419;28;20046;-76
2024/01/26 04:40:42;;;;;;;878.25;800.00;;;9.40;99.90;;;;;;5001978;28;20228;-76
2024/01/26 04:43:08;;;;;;;809.15;743.33;;;9.40;99.90;;;;;;5000568;28;20462;-76
2024/01/26 04:45:34;;;;;;;821.17;755.17;;;9.50;99.90;;;;;;5002700;28;20045;-76
2024/01/26 04:47:59;;;;;;;895.10;819.60;;;9.50;99.90;;;;;;5003470;28;20045;-76
2024/01/26 04:50:25;;;;;;;790.05;727.17;;;9.50;99.90;;;;;;5003552;28;20435;-76
2024/01/26 04:52:52;;;;;;;797.97;733.85;;;9.50;99.90;;;;;;5002063;28;20046;-76
2024/01/26 04:55:21;;;;;;;903.55;825.67;;;9.50;99.90;;;;;;5002547;28;20490;-76
2024/01/26 04:57:46;;;;;;;866.65;790.88;;;9.60;99.90;;;;;;4999375;28;20135;-76
2024/01/26 05:00:12;;;;;;;778.65;718.13;;;9.60;99.90;;;;;;4983227;28;20221;-76
2024/01/26 05:02:38;;;;;;;805.53;739.90;;;9.70;99.90;;;;;;4997008;28;20054;-76
2024/01/26 05:05:04;;;;;;;905.03;828.90;;;9.60;99.90;;;;;;5002033;28;20060;-76
2024/01/26 05:07:30;;;;;;;872.45;800.42;;;9.60;99.90;;;;;;5003682;28;20082;-76
2024/01/26 05:09:55;;;;;;;805.65;742.08;;;9.70;99.90;;;;;;5001885;28;20097;-76
2024/01/26 05:12:21;;;;;;;818.83;753.53;;;9.80;99.90;;;;;;4997824;28;20045;-76
2024/01/26 05:14:47;;;;;;;861.38;787.97;;;9.80;99.90;;;;;;5002539;28;20110;-76
2024/01/26 05:17:12;;;;;;;813.65;746.03;;;9.70;99.90;;;;;;5003000;28;20120;-76
2024/01/26 05:19:38;;;;;;;1006.38;909.35;;;9.80;99.90;;;;;;4984650;28;20046;-76
2024/01/26 05:22:04;;;;;;;808.45;745.60;;;9.80;99.90;;;;;;4984384;28;20732;-76
2024/01/26 05:24:30;;;;;;;862.35;792.15;;;9.80;99.90;;;;;;4983918;28;20052;-76
2024/01/26 05:26:55;;;;;;;936.75;852.97;;;9.80;99.90;;;;;;4987665;28;20050;-76
2024/01/26 05:29:21;;;;;;;930.75;841.47;;;9.90;99.90;;;;;;4981496;28;20077;-76
2024/01/26 05:31:47;;;;;;;832.47;766.20;;;9.90;99.90;;;;;;4989383;28;20068;-76
2024/01/26 05:34:12;;;;;;;886.75;812.28;;;9.90;99.90;;;;;;4992213;28;20049;-76
2024/01/26 05:36:41;;;;;;;875.17;802.00;;;9.90;99.90;;;;;;4993073;28;20042;-76
2024/01/26 05:39:08;;;;;;;896.60;819.00;;;10.00;99.90;;;;;;4989448;28;20050;-76
2024/01/26 05:41:34;;;;;;;839.85;771.25;;;10.10;99.90;;;;;;5012262;28;20122;-76
2024/01/26 05:44:00;;;;;;;775.72;715.30;;;10.00;99.90;;;;;;4993686;28;20129;-76
2024/01/26 05:46:26;;;;;;;794.28;730.58;;;10.00;99.90;;;;;;4993129;28;20026;-76
2024/01/26 05:48:52;;;;;;;809.17;743.50;;;10.00;99.90;;;;;;5009707;28;20050;-76
2024/01/26 05:51:17;;;;;;;787.90;725.75;;;10.00;99.90;;;;;;4993746;28;20129;-76
2024/01/26 05:53:43;;;;;;;824.08;757.65;;;10.00;99.90;;;;;;4992970;28;20054;-76
2024/01/26 05:56:09;;;;;;;877.33;804.33;;;10.00;99.90;;;;;;4993202;28;20046;-76
2024/01/26 05:58:35;;;;;;;830.92;764.65;;;10.00;99.90;;;;;;4990300;28;20444;-76
2024/01/26 06:01:00;;;;;;;882.40;809.38;;;10.00;99.90;;;;;;4983349;28;20047;-76
2024/01/26 06:03:26;;;;;;;866.10;794.38;;;10.10;99.90;;;;;;4989510;28;20085;-76
2024/01/26 06:05:52;;;;;;;852.40;781.45;;;10.00;99.90;;;;;;4987463;28;20048;-76
2024/01/26 06:08:18;;;;;;;853.00;782.80;;;10.10;99.90;;;;;;5022272;28;20054;-76
2024/01/26 06:10:44;;;;;;;861.72;787.75;;;10.00;99.90;;;;;;4986264;28;20108;-76
2024/01/26 06:13:10;;;;;;;837.95;770.20;;;10.10;99.90;;;;;;4989772;28;20416;-76
2024/01/26 06:15:36;;;;;;;796.28;733.33;;;10.10;99.90;;;;;;4988997;28;20057;-76
2024/01/26 06:18:02;;;;;;;773.28;713.42;;;10.10;99.90;;;;;;4988247;28;20103;-76
2024/01/26 06:20:31;;;;;;;903.00;824.85;;;10.10;99.90;;;;;;4987171;28;20074;-76
2024/01/26 06:22:57;;;;;;;874.67;800.20;;;10.20;99.90;;;;;;4988015;28;20042;-76
2024/01/26 06:25:24;;;;;;;892.65;812.78;;;10.20;99.90;;;;;;4985906;28;20517;-77
2024/01/26 06:27:50;;;;;;;789.30;726.72;;;10.10;99.90;;;;;;4986409;28;20058;-76
2024/01/26 06:30:15;;;;;;;859.92;784.70;;;10.10;99.90;;;;;;4986717;28;20054;-76
2024/01/26 06:32:42;;;;;;;765.08;705.65;;;10.10;99.90;;;;;;5018114;28;20046;-76
2024/01/26 06:35:10;;;;;;;843.65;774.85;;;10.20;99.90;;;;;;4984767;28;20050;-76
2024/01/26 06:37:36;;;;;;;802.08;739.97;;;10.20;99.90;;;;;;4985031;28;20058;-76
2024/01/26 06:40:03;;;;;;;914.00;830.50;;;10.20;99.90;;;;;;5000796;28;20042;-76
2024/01/26 06:42:30;;;;;;;867.70;794.78;;;10.20;99.90;;;;;;5002583;28;20054;-77
2024/01/26 06:44:56;;;;;;;794.25;730.95;;;10.30;99.90;;;;;;4995047;28;20058;-76
2024/01/26 06:47:22;;;;;;;909.90;829.72;;;10.20;99.90;;;;;;4992987;28;20081;-76
2024/01/26 06:49:48;;;;;;;940.03;854.35;;;10.30;99.90;;;;;;4996134;28;20062;-77
2024/01/26 06:52:14;;;;;;;773.95;713.70;;;10.20;99.90;;;;;;5000044;28;20075;-76
2024/01/26 06:54:39;;;;;;;822.72;756.75;;;10.30;99.90;;;;;;5000074;28;20050;-77
2024/01/26 06:57:06;;;;;;;919.58;837.80;;;10.30;99.90;;;;;;5038516;28;20048;-77
2024/01/26 06:59:32;;;;;;;843.22;774.10;;;10.30;99.90;;;;;;4990660;28;20078;-76
2024/01/26 07:01:58;;;;;;;924.60;841.00;;;10.30;99.90;;;;;;4989159;28;20130;-78
2024/01/26 07:04:24;;;;;;;836.75;767.92;;;10.40;99.90;;;;;;4991110;28;20054;-76
2024/01/26 07:06:50;;;;;;;936.08;847.67;;;10.30;99.90;;;;;;4995450;28;20051;-76
2024/01/26 07:09:16;;;;;;;881.40;804.15;;;10.40;99.90;;;;;;4992584;28;20051;-76
2024/01/26 07:11:42;;;;;;;825.20;759.55;;;10.40;99.90;;;;;;4993633;28;20531;-76
2024/01/26 07:14:09;;;;;;;894.33;816.88;;;10.40;99.90;;;;;;4994299;28;20486;-76
2024/01/26 07:16:34;;;;;;;881.78;807.10;;;10.50;99.90;;;;;;4994533;28;20523;-76
2024/01/26 07:19:00;;;;;;;895.22;816.85;;;10.40;99.90;;;;;;4993298;28;20062;-76
2024/01/26 07:21:26;;;;;;;823.03;754.47;;;10.40;99.90;;;;;;4994571;28;20442;-76
2024/01/26 07:23:51;;;;;;;849.10;777.95;;;10.50;99.90;;;;;;4990990;28;20057;-76
2024/01/26 07:26:19;;;;;;;870.50;794.35;;;10.50;99.90;;;;;;4994937;28;20339;-77
2024/01/26 07:28:45;;;;;;;1006.85;902.70;;;10.50;99.90;;;;;;4992841;28;20592;-77
2024/01/26 07:31:11;;;;;;;855.70;779.33;;;10.50;99.90;;;;;;4984375;28;20163;-77
2024/01/26 07:33:36;;;;;;;771.42;711.80;;;10.50;99.90;;;;;;4994258;28;20093;-76
2024/01/26 07:36:02;;;;;;;842.50;773.80;;;10.50;99.90;;;;;;4982631;28;20157;-76
2024/01/26 07:38:28;;;;;;;772.22;713.22;;;10.50;99.90;;;;;;5012504;28;20431;-77
2024/01/26 07:40:54;;;;;;;780.97;721.13;;;10.50;99.90;;;;;;4994949;28;20261;-76
2024/01/26 07:43:19;;;;;;;793.58;731.80;;;10.40;99.90;;;;;;4995844;28;20046;-77
2024/01/26 07:45:45;;;;;;;880.15;803.17;;;10.50;99.90;;;;;;4999463;28;20090;-76
2024/01/26 07:48:12;;;;;;;877.00;803.13;;;10.40;99.90;;;;;;4996149;28;20046;-76
2024/01/26 07:50:41;;;;;;;914.38;832.78;;;10.50;99.90;;;;;;5002082;28;20116;-77
2024/01/26 07:53:07;;;;;;;872.17;800.35;;;10.50;99.90;;;;;;4992532;28;20053;-77
2024/01/26 07:55:33;;;;;;;843.00;774.30;;;10.50;99.90;;;;;;4999197;28;20493;-77
2024/01/26 07:57:58;;;;;;;826.67;759.10;;;10.50;99.90;;;;;;4995350;28;20060;-76
2024/01/26 08:00:24;;;;;;;932.53;845.63;;;10.50;99.90;;;;;;4985508;28;20049;-76
2024/01/26 08:02:50;;;;;;;848.00;776.00;;;10.40;99.90;;;;;;4986516;28;20519;-76
2024/01/26 08:05:16;;;;;;;804.10;741.72;;;10.40;99.90;;;;;;5002746;28;20099;-76
2024/01/26 08:07:41;;;;;;;789.30;728.08;;;10.50;99.90;;;;;;5003488;28;20096;-76
2024/01/26 08:10:09;;;;;;;822.80;757.17;;;10.50;99.90;;;;;;5002374;28;20485;-76
2024/01/26 08:12:35;;;;;;;780.15;719.97;;;10.40;99.90;;;;;;4978378;28;20042;-76
2024/01/26 08:15:02;;;;;;;870.65;796.05;;;10.40;99.90;;;;;;4999723;28;20088;-76
2024/01/26 08:17:28;;;;;;;849.67;783.08;;;10.50;99.90;;;;;;4996208;28;20133;-76
2024/01/26 08:19:53;;;;;;;868.17;795.13;;;10.50;99.90;;;;;;5001169;28;20137;-75
2024/01/26 08:22:19;;;;;;;836.17;768.53;;;10.50;99.90;;;;;;4996503;28;20050;-75
2024/01/26 08:24:45;;;;;;;932.88;845.78;;;10.50;99.90;;;;;;4969572;28;20043;-76
2024/01/26 08:27:11;;;;;;;772.42;712.53;;;10.40;99.90;;;;;;4975303;28;20042;-76
2024/01/26 08:29:37;;;;;;;821.22;754.85;;;10.50;99.90;;;;;;4969807;28;20376;-76
2024/01/26 08:32:03;;;;;;;1028.55;922.20;;;10.50;99.90;;;;;;5006258;28;20057;-76
2024/01/26 08:34:28;;;;;;;956.45;858.25;;;10.50;99.90;;;;;;4967618;28;20054;-76
2024/01/26 08:36:54;;;;;;;854.65;784.92;;;10.60;99.90;;;;;;4976698;28;20481;-76
2024/01/26 08:39:20;;;;;;;805.35;740.88;;;10.60;99.90;;;;;;5000834;28;20137;-76
2024/01/26 08:41:46;;;;;;;849.63;780.80;;;10.60;99.90;;;;;;4996213;28;20485;-76
2024/01/26 08:44:13;;;;;;;816.35;751.75;;;10.60;99.90;;;;;;4999488;28;20045;-76
2024/01/26 08:46:38;;;;;;;848.53;778.03;;;10.60;99.90;;;;;;4998667;28;20149;-76
2024/01/26 08:49:06;;;;;;;930.40;849.53;;;10.50;99.90;;;;;;4998449;28;20493;-76
2024/01/26 08:51:32;;;;;;;1162.95;992.00;;;10.50;99.90;;;;;;4980414;28;20511;-77
2024/01/26 08:53:58;;;;;;;889.50;811.83;;;10.50;99.90;;;;;;4986848;28;20072;-76
2024/01/26 08:56:24;;;;;;;926.80;843.47;;;10.50;99.90;;;;;;4990010;28;20462;-76
2024/01/26 08:58:50;;;;;;;1032.88;926.22;;;10.50;99.90;;;;;;4985400;28;20069;-77
2024/01/26 09:01:16;;;;;;;830.40;761.05;;;10.60;99.90;;;;;;4996858;28;20133;-77
2024/01/26 09:03:42;;;;;;;1043.68;934.08;;;10.60;99.90;;;;;;4982881;28;20125;-78
2024/01/26 09:06:11;;;;;;;1086.30;944.47;;;10.60;99.90;;;;;;4996573;28;20085;-78
2024/01/26 09:08:38;;;;;;;966.40;875.08;;;10.60;99.90;;;;;;4985251;28;20050;-78
2024/01/26 09:11:04;;;;;;;912.88;832.28;;;10.70;99.90;;;;;;4984559;28;20074;-78
2024/01/26 09:13:30;;;;;;;1031.40;928.05;;;10.60;99.90;;;;;;4968058;28;20080;-78
2024/01/26 09:15:55;;;;;;;1118.90;992.47;;;10.60;99.90;;;;;;4983729;28;20042;-79
2024/01/26 09:18:22;;;;;;;1263.05;999.13;;;10.70;99.90;;;;;;4973886;28;20089;-78
2024/01/26 09:20:49;;;;;;;1277.93;999.78;;;10.50;99.90;;;;;;4989970;28;20038;-78
2024/01/26 09:23:16;;;;;;;985.35;889.90;;;10.50;99.90;;;;;;4986836;28;20046;-78
2024/01/26 09:25:43;;;;;;;1055.45;932.15;;;10.20;99.90;;;;;;4991117;28;20046;-78
2024/01/26 09:28:09;;;;;;;993.42;895.80;;;9.80;99.90;;;;;;4979959;28;20082;-78
2024/01/26 09:30:34;;;;;;;979.38;886.83;;;9.60;99.90;;;;;;4996703;28;20830;-77
2024/01/26 09:33:00;;;;;;;984.15;893.78;;;9.50;99.90;;;;;;4979173;28;20042;-78
2024/01/26 09:35:26;;;;;;;849.50;780.72;;;9.40;99.90;;;;;;4984617;28;20042;-78
2024/01/26 09:37:51;;;;;;;836.63;769.10;;;9.40;99.90;;;;;;5021745;28;20486;-78
2024/01/26 09:40:19;;;;;;;888.53;808.53;;;9.30;99.90;;;;;;4993370;28;20116;-78
2024/01/26 09:42:45;;;;;;;851.72;780.63;;;9.30;99.90;;;;;;4991367;28;20050;-78
2024/01/26 09:45:12;;;;;;;937.45;854.25;;;9.40;99.90;;;;;;4985947;28;20710;-78
2024/01/26 09:47:39;;;;;;;867.08;795.05;;;9.30;99.90;;;;;;4978741;28;20137;-78
2024/01/26 09:50:06;;;;;;;892.10;817.15;;;9.30;99.90;;;;;;4988262;28;20042;-78
2024/01/26 09:52:35;;;;;;;810.97;746.97;;;9.30;99.90;;;;;;4985706;28;20448;-78
2024/01/26 09:55:01;;;;;;;1062.38;955.08;;;9.20;99.90;;;;;;4987428;28;20113;-77
2024/01/26 09:57:29;;;;;;;1041.18;889.83;;;9.20;99.90;;;;;;4994207;28;20918;-78
2024/01/26 09:59:55;;;;;;;947.28;861.40;;;9.10;99.90;;;;;;4963233;28;20043;-78
2024/01/26 10:02:22;;;;;;;914.30;832.70;;;9.10;99.90;;;;;;5005789;28;20057;-77
2024/01/26 10:04:48;;;;;;;955.35;867.08;;;8.90;99.90;;;;;;5002779;28;20085;-77
2024/01/26 10:07:15;;;;;;;882.80;809.42;;;8.90;99.90;;;;;;4985072;28;20481;-77
2024/01/26 10:09:42;;;;;;;932.58;845.97;;;8.90;99.90;;;;;;4985945;28;20121;-77
2024/01/26 10:12:09;;;;;;;991.22;897.78;;;8.80;99.90;;;;;;4979059;28;20046;-77
2024/01/26 10:14:35;;;;;;;982.17;888.25;;;8.70;99.90;;;;;;4994324;28;20389;-77
2024/01/26 10:17:00;;;;;;;1012.15;914.83;;;8.70;99.90;;;;;;5031867;28;20042;-77
2024/01/26 10:19:27;;;;;;;873.63;797.08;;;8.70;99.90;;;;;;4999092;28;20050;-77
2024/01/26 10:21:53;;;;;;;904.30;821.42;;;8.60;99.90;;;;;;4998110;28;20377;-77
2024/01/26 10:24:23;;;;;;;888.53;811.47;;;8.60;99.90;;;;;;5012675;28;20183;-77
2024/01/26 10:26:51;;;;;;;865.95;792.47;;;8.60;99.90;;;;;;4987509;28;20042;-77
2024/01/26 10:29:17;;;;;;;715.25;660.50;;;8.50;99.90;;;;;;4984061;28;20046;-77
2024/01/26 10:31:45;;;;;;;806.85;740.42;;;8.50;99.90;;;;;;4989403;28;20054;-77
2024/01/26 10:34:14;;;;;;;872.17;786.60;;;8.50;99.90;;;;;;4986917;28;20050;-77
2024/01/26 10:36:43;;;;;;;904.70;823.60;;;8.50;99.90;;;;;;4989393;28;20378;-77
2024/01/26 10:39:22;;;;;;;759.35;698.22;;;8.50;99.90;;;;;;4986357;28;20050;-77
2024/01/26 10:41:50;;;;;;;798.10;732.88;;;8.50;99.90;;;;;;4988396;28;20043;-77
2024/01/26 10:44:16;;;;;;;954.55;862.78;;;8.50;99.90;;;;;;4990489;28;20042;-77
2024/01/26 10:46:43;;;;;;;855.35;778.05;;;8.50;99.90;;;;;;4989245;28;20080;-77
2024/01/26 10:49:10;;;;;;;882.17;806.50;;;8.50;99.90;;;;;;4988282;28;20050;-77
2024/01/26 10:51:37;;;;;;;903.60;818.88;;;8.50;99.90;;;;;;4987318;28;20085;-77
2024/01/26 10:54:08;;;;;;;897.60;816.83;;;8.50;99.90;;;;;;4990162;28;20378;-77
2024/01/26 10:56:34;;;;;;;879.67;795.97;;;8.60;99.90;;;;;;4987020;28;20118;-77
2024/01/26 10:59:00;;;;;;;947.78;856.30;;;8.60;99.90;;;;;;4989420;28;20045;-77
2024/01/26 11:01:27;;;;;;;903.25;817.13;;;8.60;99.90;;;;;;4987330;28;20053;-77
2024/01/26 11:03:56;;;;;;;677.53;626.28;;;8.50;99.90;;;;;;4986081;28;20087;-77
2024/01/26 11:06:22;;;;;;;899.55;807.40;;;8.60;99.90;;;;;;4985943;28;20074;-77
2024/01/26 11:08:48;;;;;;;803.47;737.58;;;8.50;99.90;;;;;;4985864;28;20398;-77
2024/01/26 11:11:16;;;;;;;934.13;849.20;;;8.50;99.90;;;;;;4984865;28;20107;-77
2024/01/26 11:13:41;;;;;;;832.17;761.13;;;8.60;99.90;;;;;;4986673;28;20050;-77
2024/01/26 11:16:08;;;;;;;859.67;784.17;;;8.60;99.90;;;;;;4988728;28;20125;-77
2024/01/26 11:18:36;;;;;;;774.60;712.38;;;8.60;99.90;;;;;;5006025;28;20060;-78
2024/01/26 11:21:02;;;;;;;797.60;731.72;;;8.60;99.90;;;;;;4991944;28;20053;-78
2024/01/26 11:23:39;;;;;;;857.22;782.22;;;8.60;99.90;;;;;;5002845;28;20097;-78
2024/01/26 11:26:13;;;;;;;711.60;655.80;;;8.60;99.90;;;;;;5005716;28;20592;-77
2024/01/26 11:28:39;;;;;;;692.92;640.10;;;8.60;99.90;;;;;;4984202;28;20060;-77
2024/01/26 11:31:05;;;;;;;686.25;633.13;;;8.50;99.90;;;;;;4985443;28;20138;-78
2024/01/26 11:33:39;;;;;;;651.88;602.33;;;8.50;99.90;;;;;;4986653;28;20065;-78
2024/01/26 11:36:10;;;;;;;775.85;708.20;;;8.50;99.90;;;;;;4969187;28;20505;-78
2024/01/26 11:38:36;;;;;;;668.10;615.38;;;8.50;99.90;;;;;;4993868;28;20050;-77
2024/01/26 11:41:03;;;;;;;677.20;622.10;;;8.60;99.90;;;;;;5004352;28;20044;-78
2024/01/26 11:43:29;;;;;;;752.05;688.15;;;8.60;99.90;;;;;;5002358;28;20100;-77
2024/01/26 11:45:56;;;;;;;761.00;695.58;;;8.50;99.90;;;;;;4996664;28;20054;-76
2024/01/26 11:48:22;;;;;;;689.22;635.72;;;8.50;99.90;;;;;;4994171;28;20041;-77
2024/01/26 11:50:49;;;;;;;763.65;691.25;;;8.50;99.90;;;;;;4998498;28;20044;-77
2024/01/26 11:53:17;;;;;;;681.33;625.40;;;8.50;99.90;;;;;;4998612;28;20038;-77
2024/01/26 11:55:43;;;;;;;742.72;679.35;;;8.50;99.90;;;;;;4998832;28;20052;-77
2024/01/26 11:58:11;;;;;;;762.42;701.47;;;8.50;99.90;;;;;;4997110;28;20194;-77
2024/01/26 12:00:37;;;;;;;792.55;717.45;;;8.40;99.90;;;;;;4974579;28;20055;-77
2024/01/26 12:03:05;;;;;;;764.40;701.70;;;8.40;99.90;;;;;;4971963;28;20055;-77
2024/01/26 12:05:34;;;;;;;828.63;747.05;;;8.40;99.90;;;;;;4999375;28;20125;-77
2024/01/26 12:08:04;;;;;;;726.28;667.63;;;8.40;99.90;;;;;;4969786;28;20130;-77